Pagina principale
METAR-TAF:

METAR-TAF

Aeroporti :

Aeroporto di Alghero-Fertilia

Alghero, Italia

latitudine: 40-38N, longitudine: 008-17E, altezza: 23 m

Osservazione

Il bollettino è stato emesso 30 minuti fa, alle 16:50 UTC
Vento 7 kt da ovest/sud-ovest
Temperature 11°C
Umidità 66%
Pressione 1021 hPa
Visibilità 10 km o più

METAR: LIEA 201650Z AUTO 25007KT 9999 OVC029/// 11/05 Q1021

Ora: 18:20 (17:20 UTC)

Previsione

Il bollettino è stato emesso 6 ore e 20 minuti fa, alle 11:00 UTC
Previsione valida dal 20 alle 12 UTC al 21 alle 12 UTC
Vento 12 kt da ovest/nord-ovest
Visibilità 10 km o più
Nuvoloso ad un'altezza di 3000 ft
Evoluzione graduale
dal 21 alle 06 UTC al 21 alle 08 UTC
Vento 5 kt da direzioni variabili

TAF: LIEA 201100Z 2012/2112 29012KT 9999 BKN030 BECMG 2106/2108 VRB05KT

Osservazioni e previsioni meteorologiche di più di 4000 aeroporti (messaggi METAR e TAF).

Le stazioni disponibili sono rappresentate dai dischi gialli e rossi sulla carta.

Puntare il mouse per vedere il nome della stazione.

Clicca sopra per visualizzare le osservazioni e previsioni meteorologiche.

Per cambiare la mappa : fare clic sui pulsanti verdi con una croce nera per ingrandire, il pulsante verde con un trattino per diminuire, o sulla freccia verde per le mappe adiacenti.


METAR-TAF: